Skiros, Greece
Current Conditions -  °F | °C
As of 8:50 PM on Friday 24 Oct 2014 (Local Time) from LGSY Reporting Station
Moderate Rain Moderate Rain  
Wind Chill: 18°   Ceiling: 1400
Heat Index: 18°   Visibility: 4mi
Dew Point: 13°   Wind: 21mph
Humidity: 73%   Direction: 160°SSE
Pressure: 29.53"   Gusts: 32mph
Location:  38.9°N, 24.56°E
Report Text: LGSY 241750Z 16018G28KT 6000 RA BKN014 FEW016CB BKN080 OVC180 18/13 Q1000 RETS RMK CB W 13KM WHT
Loading
Personal Weather Stations






























Interactive Weather Map
Tropical Storm Tracking
New forecast layout! Learn more

10-Day Weather Forecast

Advertisements
Track Severe Weather on mobile